Umea Robacksdalen, Sweden

3:43 PM CEST on August 29, 2014 (GMT +0200)
Mariedal | Change Station
CLOSE
Current Station
Personal Weather Station
Location: Umeå, VäSTERBOTTEN
Elevation: 125 ft
Nearby Weather Stations

Elev 125 ft 63.85 °N, 20.31 °E | Updated 2 seconds ago

Scattered Clouds
Scattered Clouds
60.6 °F
Feels Like 60.6 °F
N
9.0
Wind Variable Wind from NNE
Gusts 13.0 mph

Today
High -- | Low -- °F
--% Chance of Precip.
Yesterday
High -- | Low -- °F
Precip. -- in
5:13 AM 8:04 PM
Waxing Crescent, 14% visible
Pressure 30.04 in
Visibility 6.2 miles
Clouds Scattered Clouds 4000 ft
Scattered Clouds 5100 ft
Dew Point 47 °F
Humidity 61%
Rainfall 0.00 in
Snow Depth Not available.
UV 2 out of 12
Pollen Not available.
Air Quality Not available.
Flu Activity Not available.
METAR ESNU 291320Z 02010KT 340V050 9999 SCT040 SCT051 15/06 Q1017

More Conditions Fewer Conditions

Pressure 30.04 in
Visibility 6.2 miles
Clouds Scattered Clouds 4000 ft
Scattered Clouds 5100 ft
Dew Point 47 °F
Humidity 61%
Rainfall 0.00 in
Snow Depth Not available.
UV 2 out of 12
Pollen Not available.
Air Quality Not available.
Flu Activity Not available.
METAR ESNU 291320Z 02010KT 340V050 9999 SCT040 SCT051 15/06 Q1017

More Conditions Fewer Conditions

10-Day Weather Forecast

Almanac

Astronomy

Aug. 29, 2014 Rise Set
Actual Time 5:13 AM CEST 8:04 PM CEST
Civil Twilight 4:18 AM CEST 8:58 PM CEST
Nautical Twilight 3:01 AM CEST 10:14 PM CEST
Astronomical Twilight 1:12 AM CEST 12:07 AM CEST
Moon 10:11 AM CEST 8:19 PM CEST
Length of Visible Light 16h 39m
Length of Day
14h 51m
Tomorrow will be 6m 25s shorter.
Waxing Crescent, 14% of the Moon is Illuminated
Today
Waxing Crescent
Sep 2
First Quarter
Sep 8
Full
Sep 15
Last Quarter
Sep 24
New

Yesterday's Extremes

Country Highs Country Lows

Community

WunderPhotos

Upload Photos

1,748,235 photos uploaded!

Nearby

Snow Depth

Not available.

Earthquake Activity

City Distance Mag. Time & Date
No recent earthquake activity has been reported nearby.
Minimum magnitude displayed is 2.5.

Coastal Water Temperatures

Place Temperature
No Stations Reporting

Nearby Weather Stations